Time;durP1;ratioP1;P1;durP2;ratioP2;P2;SDS_P1;SDS_P2;PMS_P1;PMS_P2;Temp;Humidity;BMP_temperature;BMP_pressure;BME280_temperature;BME280_humidity;BME280_pressure;Samples;Min_cycle;Max_cycle;Signal;HPM_P1;HPM_P2
2022/05/22 00:01:37;;;;;;;1.83;1.50;;;22.30;99.90;;;;;;5073007;28;20484;-62
2022/05/22 00:04:03;;;;;;;1.98;1.30;;;22.30;99.90;;;;;;5073145;28;20031;-62
2022/05/22 00:06:29;;;;;;;1.90;1.65;;;22.30;99.90;;;;;;5073306;28;20466;-61
2022/05/22 00:08:55;;;;;;;2.97;2.40;;;22.20;99.90;;;;;;5073159;28;20490;-62
2022/05/22 00:11:22;;;;;;;4.20;2.63;;;22.00;99.90;;;;;;5073063;28;20020;-62
2022/05/22 00:13:49;;;;;;;3.35;2.60;;;21.80;99.90;;;;;;5073253;28;20111;-61
2022/05/22 00:16:36;;;;;;;7.78;2.97;;;21.40;99.90;;;;;;5073115;28;20032;-61
2022/05/22 00:19:02;;;;;;;2.42;2.22;;;21.30;99.90;;;;;;5072574;28;20634;-61
2022/05/22 00:21:27;;;;;;;3.83;2.00;;;21.20;99.90;;;;;;5073307;28;20031;-62
2022/05/22 00:23:53;;;;;;;2.35;1.95;;;21.40;99.90;;;;;;5072923;28;20020;-62
2022/05/22 00:26:19;;;;;;;4.28;1.65;;;21.60;99.90;;;;;;5072941;28;20028;-61
2022/05/22 00:28:44;;;;;;;3.15;1.88;;;21.80;99.90;;;;;;5073128;28;20075;-62
2022/05/22 00:31:11;;;;;;;2.20;2.00;;;21.80;99.90;;;;;;5072779;28;20051;-62
2022/05/22 00:33:36;;;;;;;2.17;1.85;;;21.60;99.90;;;;;;5073125;28;20505;-62
2022/05/22 00:36:03;;;;;;;1.95;1.52;;;21.60;99.90;;;;;;5072968;28;20025;-62
2022/05/22 00:38:29;;;;;;;2.75;1.92;;;21.60;99.90;;;;;;5072899;28;20017;-62
2022/05/22 00:40:55;;;;;;;8.57;2.25;;;21.50;99.90;;;;;;5073029;28;20375;-62
2022/05/22 00:43:39;;;;;;;3.28;1.85;;;21.40;99.90;;;;;;5073092;28;20089;-62
2022/05/22 00:46:07;;;;;;;2.63;1.70;;;21.30;99.90;;;;;;5072560;28;20021;-62
2022/05/22 00:48:34;;;;;;;2.63;1.75;;;21.30;99.90;;;;;;5073019;28;20023;-62
2022/05/22 00:51:04;;;;;;;2.10;1.75;;;21.40;99.90;;;;;;5072684;28;20016;-62
2022/05/22 00:53:32;;;;;;;1.85;1.50;;;21.20;99.90;;;;;;5072603;28;20468;-62
2022/05/22 00:56:05;;;;;;;2.75;1.70;;;21.10;99.90;;;;;;5072727;28;20032;-61
2022/05/22 00:58:32;;;;;;;2.17;1.92;;;21.00;99.90;;;;;;5074465;28;20411;-62
2022/05/22 01:00:58;;;;;;;2.90;2.15;;;20.80;99.90;;;;;;5076302;28;20028;-62
2022/05/22 01:03:27;;;;;;;2.83;1.60;;;20.60;99.90;;;;;;5076328;28;20025;-62
2022/05/22 01:06:01;;;;;;;1.73;1.60;;;20.50;99.90;;;;;;5076311;28;20033;-61
2022/05/22 01:08:27;;;;;;;1.88;1.60;;;20.50;99.90;;;;;;5076193;28;20421;-62
2022/05/22 01:11:00;;;;;;;2.45;1.63;;;20.70;99.90;;;;;;5076260;28;20035;-61
2022/05/22 01:13:52;;;;;;;4.30;1.70;;;20.80;99.90;;;;;;5075948;28;20537;-61
2022/05/22 01:16:19;;;;;;;1.80;1.45;;;20.80;99.90;;;;;;5075994;28;20040;-61
2022/05/22 01:18:50;;;;;;;3.20;1.55;;;20.80;99.90;;;;;;5076034;28;20017;-62
2022/05/22 01:21:34;;;;;;;1.60;1.50;;;20.90;99.90;;;;;;5076277;28;20356;-62
2022/05/22 01:24:00;;;;;;;2.38;1.42;;;20.90;99.90;;;;;;5076074;28;20044;-62
2022/05/22 01:26:28;;;;;;;2.08;1.40;;;20.90;99.90;;;;;;5076072;28;20537;-62
2022/05/22 01:28:53;;;;;;;2.15;1.55;;;20.90;99.90;;;;;;5075985;28;20371;-61
2022/05/22 01:31:19;;;;;;;1.45;1.35;;;21.10;99.90;;;;;;5075896;28;20017;-62
2022/05/22 01:33:46;;;;;;;2.72;1.70;;;21.20;99.90;;;;;;5076077;28;20024;-62
2022/05/22 01:36:12;;;;;;;3.13;2.00;;;21.20;99.90;;;;;;5075987;28;20115;-61
2022/05/22 01:38:38;;;;;;;3.25;2.03;;;21.20;99.90;;;;;;5076107;28;20522;-61
2022/05/22 01:41:04;;;;;;;2.67;2.17;;;21.20;99.90;;;;;;5075689;28;20024;-62
2022/05/22 01:43:31;;;;;;;2.40;1.75;;;21.10;99.90;;;;;;5075448;28;20471;-61
2022/05/22 01:45:57;;;;;;;2.22;1.65;;;21.10;99.90;;;;;;5075632;28;20024;-62
2022/05/22 01:48:23;;;;;;;2.08;1.60;;;21.10;99.90;;;;;;5075529;28;20096;-62
2022/05/22 01:50:49;;;;;;;1.90;1.60;;;21.00;99.90;;;;;;5075568;28;20139;-62
2022/05/22 01:53:17;;;;;;;1.40;1.30;;;21.00;99.90;;;;;;5075488;28;20021;-61
2022/05/22 01:55:42;;;;;;;2.70;1.80;;;21.00;99.90;;;;;;5075252;28;20040;-62
2022/05/22 01:58:09;;;;;;;2.03;1.83;;;21.10;99.90;;;;;;5074995;28;20049;-61
2022/05/22 02:00:35;;;;;;;1.67;1.58;;;21.10;99.90;;;;;;5075305;28;20104;-61
2022/05/22 02:03:02;;;;;;;1.55;1.45;;;21.30;99.90;;;;;;5075197;28;20035;-61
2022/05/22 02:05:28;;;;;;;3.55;2.50;;;21.30;99.90;;;;;;5075476;28;20070;-62
2022/05/22 02:10:40;;;;;;;5.82;3.30;;;21.40;99.90;;;;;;5074663;28;20051;-62
2022/05/22 02:13:07;;;;;;;6.00;3.22;;;21.40;99.90;;;;;;5075267;28;20033;-62
2022/05/22 02:15:33;;;;;;;5.90;3.55;;;21.30;99.90;;;;;;5075157;28;20029;-62
2022/05/22 02:17:59;;;;;;;3.80;2.97;;;21.20;99.90;;;;;;5075263;28;20042;-62
2022/05/22 02:20:26;;;;;;;2.75;2.50;;;21.00;99.90;;;;;;5074965;28;20077;-62
2022/05/22 02:22:54;;;;;;;2.10;1.90;;;21.00;99.90;;;;;;5074742;28;20020;-62
2022/05/22 02:25:23;;;;;;;5.78;2.35;;;21.10;99.90;;;;;;5075137;28;20033;-62
2022/05/22 02:27:49;;;;;;;2.55;1.92;;;21.10;99.90;;;;;;5056649;28;20495;-62
2022/05/22 02:30:19;;;;;;;2.38;2.17;;;21.00;99.90;;;;;;5074778;28;20103;-61
2022/05/22 02:32:44;;;;;;;3.45;2.08;;;21.10;99.90;;;;;;5074817;28;20023;-61
2022/05/22 02:35:12;;;;;;;2.00;1.80;;;21.10;99.90;;;;;;5074667;28;20025;-62
2022/05/22 02:37:49;;;;;;;2.35;2.15;;;21.30;99.90;;;;;;5074595;28;20028;-61
2022/05/22 02:40:17;;;;;;;3.00;2.10;;;21.40;99.90;;;;;;5074601;28;20021;-62
2022/05/22 02:42:46;;;;;;;2.72;1.92;;;21.40;99.90;;;;;;5074441;28;20031;-62
2022/05/22 02:45:15;;;;;;;2.17;1.80;;;21.30;99.90;;;;;;5074302;28;20024;-61
2022/05/22 02:47:41;;;;;;;3.22;2.30;;;21.30;99.90;;;;;;5074655;28;20120;-62
2022/05/22 02:50:08;;;;;;;3.22;1.90;;;21.30;99.90;;;;;;5074298;28;20475;-62
2022/05/22 02:52:35;;;;;;;5.05;2.53;;;21.40;99.90;;;;;;5074128;28;20020;-62
2022/05/22 02:55:01;;;;;;;4.50;2.60;;;21.40;99.90;;;;;;5074244;28;20024;-62
2022/05/22 02:57:26;;;;;;;3.58;2.03;;;21.40;99.90;;;;;;5074243;28;20388;-62
2022/05/22 02:59:54;;;;;;;3.67;3.00;;;21.40;99.90;;;;;;5073846;28;20091;-62
2022/05/22 03:02:21;;;;;;;4.75;2.88;;;21.40;99.90;;;;;;5074074;28;20104;-62
2022/05/22 03:04:50;;;;;;;9.65;4.80;;;21.30;99.90;;;;;;5074106;28;20098;-62
2022/05/22 03:07:18;;;;;;;4.63;2.95;;;21.20;99.90;;;;;;5073989;28;20429;-62
2022/05/22 03:09:45;;;;;;;7.13;4.22;;;21.00;99.90;;;;;;5073771;28;20016;-62
2022/05/22 03:12:15;;;;;;;3.90;3.00;;;21.00;99.90;;;;;;5074191;28;20142;-62
2022/05/22 03:14:49;;;;;;;5.72;4.18;;;21.00;99.90;;;;;;5073818;28;20078;-62
2022/05/22 03:17:15;;;;;;;7.45;3.75;;;21.00;99.90;;;;;;5073744;28;20089;-62
2022/05/22 03:19:40;;;;;;;5.72;3.38;;;21.00;99.90;;;;;;5073837;28;20047;-61
2022/05/22 03:22:08;;;;;;;8.98;3.75;;;20.80;99.90;;;;;;5072843;28;20479;-62
2022/05/22 03:24:34;;;;;;;3.78;2.75;;;20.70;99.90;;;;;;5073575;28;20016;-61
2022/05/22 03:27:10;;;;;;;3.45;2.55;;;20.70;99.90;;;;;;5073623;28;20035;-62
2022/05/22 03:29:36;;;;;;;2.72;2.40;;;20.80;99.90;;;;;;5073793;28;20040;-62
2022/05/22 03:32:02;;;;;;;2.15;1.98;;;20.80;99.90;;;;;;5073712;28;20031;-62
2022/05/22 03:34:28;;;;;;;2.40;2.13;;;20.80;99.90;;;;;;5073542;28;20020;-62
2022/05/22 03:36:54;;;;;;;2.92;1.75;;;20.90;99.90;;;;;;5073478;28;20037;-62
2022/05/22 03:39:20;;;;;;;2.47;1.92;;;20.90;99.90;;;;;;5073573;28;20020;-61
2022/05/22 03:41:45;;;;;;;1.65;1.50;;;21.00;99.90;;;;;;5073791;28;20028;-62
2022/05/22 03:44:11;;;;;;;1.73;1.33;;;20.90;99.90;;;;;;5073302;28;20025;-62
2022/05/22 03:46:37;;;;;;;1.73;1.40;;;20.90;99.90;;;;;;5073445;28;20024;-62
2022/05/22 03:49:03;;;;;;;3.22;1.70;;;20.80;99.90;;;;;;5073812;28;20099;-62
2022/05/22 03:51:29;;;;;;;2.25;1.88;;;20.70;99.90;;;;;;5073234;28;20482;-62
2022/05/22 03:53:55;;;;;;;1.80;1.70;;;20.50;99.90;;;;;;5073115;28;20024;-62
2022/05/22 03:56:21;;;;;;;2.15;1.38;;;20.50;99.90;;;;;;5073442;28;20032;-62
2022/05/22 03:58:47;;;;;;;1.35;1.10;;;20.50;99.90;;;;;;5073139;28;20384;-62
2022/05/22 04:01:13;;;;;;;1.70;1.08;;;20.60;99.90;;;;;;5073238;28;20021;-62
2022/05/22 04:03:39;;;;;;;2.35;1.35;;;20.70;99.90;;;;;;5073267;28;20020;-62
2022/05/22 04:06:08;;;;;;;1.45;1.00;;;20.80;99.90;;;;;;5073334;28;20540;-62
2022/05/22 04:08:34;;;;;;;1.35;0.90;;;20.90;99.90;;;;;;5073100;28;20070;-62
2022/05/22 04:11:15;;;;;;;1.70;1.23;;;20.90;99.90;;;;;;5073454;28;20025;-62
2022/05/22 04:13:41;;;;;;;1.20;1.10;;;20.90;99.90;;;;;;5073309;28;20017;-62
2022/05/22 04:16:07;;;;;;;1.00;0.90;;;20.80;99.90;;;;;;5073271;28;20393;-62
2022/05/22 04:18:33;;;;;;;2.42;1.80;;;20.90;99.90;;;;;;5073079;28;20025;-62
2022/05/22 04:20:59;;;;;;;1.38;1.27;;;20.80;99.90;;;;;;5073008;28;20375;-62
2022/05/22 04:26:10;;;;;;;1.35;1.25;;;20.60;99.90;;;;;;5073217;28;20059;-62
2022/05/22 04:28:36;;;;;;;2.35;1.55;;;20.50;99.90;;;;;;5073135;28;20066;-62
2022/05/22 04:31:03;;;;;;;1.30;1.20;;;20.50;99.90;;;;;;5073056;28;20021;-62
2022/05/22 04:33:30;;;;;;;1.02;1.02;;;20.60;99.90;;;;;;5075151;28;20387;-62
2022/05/22 04:35:57;;;;;;;1.70;1.60;;;20.60;99.90;;;;;;5076623;28;20032;-62
2022/05/22 04:38:23;;;;;;;2.25;1.83;;;20.60;99.90;;;;;;5076856;28;20068;-61
2022/05/22 04:41:01;;;;;;;1.55;1.42;;;20.30;99.90;;;;;;5076744;28;20029;-62
2022/05/22 04:43:29;;;;;;;1.77;1.42;;;20.10;99.90;;;;;;5076771;28;20031;-62
2022/05/22 04:45:55;;;;;;;1.15;1.05;;;20.10;99.90;;;;;;5076807;28;20021;-62
2022/05/22 04:48:23;;;;;;;2.90;1.52;;;20.10;99.90;;;;;;5076846;28;20024;-62
2022/05/22 04:50:50;;;;;;;3.25;1.20;;;20.10;99.90;;;;;;5076723;28;20425;-62
2022/05/22 04:53:19;;;;;;;1.30;1.10;;;20.00;99.90;;;;;;5076593;28;20029;-62
2022/05/22 04:55:44;;;;;;;2.85;1.50;;;20.00;99.90;;;;;;5076579;28;20025;-62
2022/05/22 04:58:11;;;;;;;2.75;1.33;;;20.00;99.90;;;;;;5076185;28;20411;-62
2022/05/22 05:00:37;;;;;;;2.58;1.00;;;19.80;99.90;;;;;;5076482;28;20064;-62
2022/05/22 05:03:03;;;;;;;2.15;1.70;;;19.90;99.90;;;;;;5076320;28;20460;-62
2022/05/22 05:05:29;;;;;;;1.80;1.48;;;19.80;99.90;;;;;;5076649;28;20048;-62
2022/05/22 05:07:55;;;;;;;2.67;1.38;;;19.70;99.90;;;;;;5076304;28;20059;-62
2022/05/22 05:10:21;;;;;;;2.50;1.25;;;19.70;99.90;;;;;;5076451;28;20109;-62
2022/05/22 05:12:47;;;;;;;1.75;0.90;;;19.70;99.90;;;;;;5076266;28;20024;-62
2022/05/22 05:15:16;;;;;;;3.03;1.10;;;19.80;99.90;;;;;;5076383;28;20117;-61
2022/05/22 05:17:43;;;;;;;1.58;1.48;;;19.90;99.90;;;;;;5076068;28;20138;-62
2022/05/22 05:20:10;;;;;;;1.67;1.50;;;19.90;99.90;;;;;;5076047;28;20095;-62
2022/05/22 05:22:37;;;;;;;1.88;1.30;;;19.70;99.90;;;;;;5076271;28;20020;-62
2022/05/22 05:25:04;;;;;;;3.25;1.67;;;19.70;99.90;;;;;;5076203;28;20039;-62
2022/05/22 05:27:30;;;;;;;1.75;1.52;;;19.60;99.90;;;;;;5075934;28;20062;-62
2022/05/22 05:29:56;;;;;;;1.95;1.08;;;19.60;99.90;;;;;;5076065;28;20425;-62
2022/05/22 05:32:22;;;;;;;1.83;1.30;;;19.70;99.90;;;;;;5075879;28;20441;-62
2022/05/22 05:35:12;;;;;;;1.88;1.23;;;19.80;99.90;;;;;;5075800;28;20021;-62
2022/05/22 05:37:39;;;;;;;0.82;0.82;;;19.90;99.90;;;;;;5076007;28;20058;-62
2022/05/22 05:40:08;;;;;;;1.10;0.85;;;20.00;99.90;;;;;;5075817;28;20038;-62
2022/05/22 05:42:35;;;;;;;1.50;1.02;;;20.20;99.90;;;;;;5076001;28;20024;-62
2022/05/22 05:45:02;;;;;;;1.50;1.00;;;20.30;99.90;;;;;;5074667;28;20025;-62
2022/05/22 05:47:28;;;;;;;2.42;1.15;;;20.40;99.90;;;;;;5075643;28;20017;-62
2022/05/22 05:49:53;;;;;;;1.25;1.10;;;20.50;99.90;;;;;;5075368;28;20150;-62
2022/05/22 05:52:19;;;;;;;2.53;1.70;;;20.60;99.90;;;;;;5057625;28;20028;-62
2022/05/22 05:54:45;;;;;;;1.42;1.13;;;20.60;99.90;;;;;;5075400;28;20059;-62
2022/05/22 05:57:15;;;;;;;1.10;0.95;;;20.60;99.90;;;;;;5075469;28;20433;-61
2022/05/22 05:59:41;;;;;;;0.93;0.90;;;20.80;99.90;;;;;;5075229;28;20068;-61
2022/05/22 06:02:12;;;;;;;1.10;1.00;;;20.90;99.90;;;;;;5075204;28;20047;-62
2022/05/22 06:04:39;;;;;;;1.88;1.02;;;20.90;99.90;;;;;;5075141;28;20100;-62
2022/05/22 06:07:05;;;;;;;1.98;1.75;;;21.00;99.90;;;;;;5075319;28;20035;-62
2022/05/22 06:09:31;;;;;;;1.40;1.30;;;20.90;99.90;;;;;;5075155;28;20100;-62
2022/05/22 06:11:57;;;;;;;1.52;1.42;;;20.70;99.90;;;;;;5075194;28;20067;-62
2022/05/22 06:14:22;;;;;;;2.03;1.58;;;20.60;99.90;;;;;;5075179;28;20075;-62
2022/05/22 06:16:50;;;;;;;1.92;1.48;;;20.50;99.90;;;;;;5074922;28;20033;-61
2022/05/22 06:19:53;;;;;;;1.90;1.48;;;20.40;99.90;;;;;;5074894;28;20379;-62
2022/05/22 06:22:02;;;;;;;1.40;1.30;;;20.50;99.90;;;;;;5074681;28;20012;-62
2022/05/22 06:24:28;;;;;;;1.33;1.23;;;20.60;99.90;;;;;;5075092;28;20032;-62
2022/05/22 06:26:53;;;;;;;0.90;0.90;;;20.80;99.90;;;;;;5074947;28;20021;-62
2022/05/22 06:29:19;;;;;;;2.67;1.30;;;20.90;99.90;;;;;;5074699;28;20379;-62
2022/05/22 06:31:45;;;;;;;1.77;1.30;;;21.10;99.90;;;;;;5074737;28;20046;-61
2022/05/22 06:34:10;;;;;;;1.20;1.10;;;21.30;99.90;;;;;;5074785;28;20025;-62
2022/05/22 06:36:36;;;;;;;1.30;1.20;;;21.40;99.90;;;;;;5074730;28;20040;-62
2022/05/22 06:41:46;;;;;;;1.13;1.02;;;21.90;99.90;;;;;;5074664;28;20138;-62
2022/05/22 06:44:12;;;;;;;3.10;1.00;;;22.30;99.90;;;;;;5074413;28;20024;-62
2022/05/22 06:46:38;;;;;;;3.05;2.35;;;22.50;99.90;;;;;;5074210;28;20027;-62
2022/05/22 06:49:03;;;;;;;4.53;2.60;;;22.90;99.90;;;;;;5074487;28;20025;-62
2022/05/22 06:51:29;;;;;;;2.25;1.98;;;22.90;99.90;;;;;;5074284;28;20025;-62
2022/05/22 06:53:55;;;;;;;1.80;1.70;;;22.90;99.90;;;;;;5074273;28;20021;-62
2022/05/22 06:56:20;;;;;;;2.38;1.48;;;23.30;99.90;;;;;;5074006;28;20028;-62
2022/05/22 06:58:46;;;;;;;1.58;1.40;;;23.50;99.90;;;;;;5073962;28;20048;-62
2022/05/22 07:01:16;;;;;;;1.50;1.40;;;23.60;99.90;;;;;;5074036;28;20021;-62
2022/05/22 07:03:43;;;;;;;1.40;1.15;;;23.60;99.90;;;;;;5074151;28;20047;-62
2022/05/22 07:06:09;;;;;;;1.50;1.23;;;23.80;99.90;;;;;;5073995;28;20028;-62
2022/05/22 07:08:35;;;;;;;1.23;1.13;;;24.00;99.90;;;;;;5074236;28;20360;-62
2022/05/22 07:13:45;;;;;;;1.30;1.10;;;24.40;99.90;;;;;;5074006;28;20373;-62
2022/05/22 07:16:10;;;;;;;1.50;1.40;;;24.40;99.90;;;;;;5073697;28;20029;-62
2022/05/22 07:18:36;;;;;;;3.22;1.40;;;24.30;99.90;;;;;;5073954;28;20372;-62
2022/05/22 07:21:02;;;;;;;1.80;1.30;;;24.60;99.90;;;;;;5073694;28;20031;-62
2022/05/22 07:23:28;;;;;;;1.35;1.20;;;26.20;99.90;;;;;;5073772;28;20046;-62
2022/05/22 07:25:53;;;;;;;2.38;1.33;;;28.20;96.20;;;;;;5073885;28;20024;-62
2022/05/22 07:28:20;;;;;;;1.30;1.20;;;29.60;93.40;;;;;;5073510;28;20025;-62
2022/05/22 07:30:45;;;;;;;1.30;1.20;;;30.50;87.50;;;;;;5073568;28;20489;-62
2022/05/22 07:33:11;;;;;;;1.83;1.52;;;30.20;85.20;;;;;;5073604;28;20092;-62
2022/05/22 07:35:37;;;;;;;1.40;1.30;;;30.30;79.70;;;;;;5073400;28;20486;-62
2022/05/22 07:38:03;;;;;;;1.75;1.20;;;29.40;81.70;;;;;;5073546;28;20060;-62
2022/05/22 07:40:30;;;;;;;1.60;1.30;;;28.30;81.80;;;;;;5073531;28;20482;-62
2022/05/22 07:42:56;;;;;;;1.58;1.48;;;27.40;87.10;;;;;;5073448;28;20386;-62
2022/05/22 07:45:22;;;;;;;1.55;1.45;;;26.90;90.30;;;;;;5073495;28;20103;-62
2022/05/22 07:47:48;;;;;;;1.77;1.42;;;26.60;90.20;;;;;;5073752;28;20019;-62
2022/05/22 07:50:16;;;;;;;1.75;1.60;;;26.50;91.50;;;;;;5073616;28;20021;-62
2022/05/22 07:52:43;;;;;;;1.65;1.40;;;27.10;90.70;;;;;;5073536;28;20115;-62
2022/05/22 07:55:15;;;;;;;1.40;1.30;;;28.10;90.40;;;;;;5073253;28;20020;-62
2022/05/22 07:57:46;;;;;;;1.10;1.10;;;29.50;87.00;;;;;;5073102;28;20104;-62
2022/05/22 08:00:15;;;;;;;2.13;1.90;;;30.30;84.50;;;;;;5073038;28;20039;-62
2022/05/22 08:02:41;;;;;;;1.85;1.73;;;30.40;78.50;;;;;;5073358;28;20107;-62
2022/05/22 08:05:08;;;;;;;2.38;1.70;;;30.50;80.80;;;;;;5073148;28;20509;-62
2022/05/22 08:07:35;;;;;;;1.63;1.45;;;31.00;75.50;;;;;;5072979;28;20024;-62
2022/05/22 08:10:01;;;;;;;2.67;1.90;;;30.20;73.50;;;;;;5073161;28;20024;-62
2022/05/22 08:12:27;;;;;;;1.50;1.40;;;29.10;76.00;;;;;;5073083;28;20028;-62
2022/05/22 08:14:53;;;;;;;1.67;1.58;;;28.60;79.90;;;;;;5073623;28;20023;-62
2022/05/22 08:17:21;;;;;;;1.70;1.60;;;29.20;81.00;;;;;;5073105;28;20021;-62
2022/05/22 08:19:48;;;;;;;2.05;1.95;;;30.40;77.80;;;;;;5072990;28;20453;-62
2022/05/22 08:22:17;;;;;;;2.83;2.60;;;29.70;74.90;;;;;;5073192;28;20021;-62
2022/05/22 08:24:42;;;;;;;2.13;1.92;;;29.60;73.60;;;;;;5072909;28;20032;-62
2022/05/22 08:27:08;;;;;;;2.03;1.83;;;29.60;73.50;;;;;;5072957;28;20383;-62
2022/05/22 08:29:34;;;;;;;2.15;1.55;;;29.90;79.00;;;;;;5073070;28;20031;-62
2022/05/22 08:31:59;;;;;;;1.77;1.40;;;31.70;79.40;;;;;;5072872;28;20094;-62
2022/05/22 08:34:25;;;;;;;1.63;1.52;;;33.00;69.10;;;;;;5073013;28;20013;-62
2022/05/22 08:36:51;;;;;;;1.92;1.83;;;33.10;67.10;;;;;;5072781;28;20368;-62
2022/05/22 08:39:20;;;;;;;3.20;1.40;;;33.90;65.70;;;;;;5072857;28;20033;-62
2022/05/22 08:41:51;;;;;;;1.70;1.50;;;34.20;60.40;;;;;;5072839;28;20107;-62
2022/05/22 08:44:21;;;;;;;1.92;1.50;;;34.40;61.80;;;;;;5072914;28;20085;-62
2022/05/22 08:46:52;;;;;;;1.80;1.70;;;34.60;57.70;;;;;;5072930;28;20029;-62
2022/05/22 08:49:49;;;;;;;1.95;1.77;;;34.50;57.00;;;;;;5072755;28;20098;-62
2022/05/22 08:52:50;;;;;;;1.60;1.50;;;34.70;57.30;;;;;;5071448;28;20083;-62
2022/05/22 08:55:22;;;;;;;1.45;1.35;;;35.00;56.60;;;;;;5051115;28;20028;-62
2022/05/22 09:00:43;;;;;;;1.65;1.55;;;35.40;56.10;;;;;;5072749;28;20448;-62
2022/05/22 09:03:17;;;;;;;1.50;1.38;;;34.50;56.40;;;;;;5072644;28;20016;-62
2022/05/22 09:05:44;;;;;;;1.30;1.20;;;35.00;54.10;;;;;;5072666;28;20029;-62
2022/05/22 09:08:23;;;;;;;1.42;1.05;;;35.40;55.30;;;;;;5072833;28;20099;-62
2022/05/22 09:10:55;;;;;;;1.83;1.40;;;35.50;53.30;;;;;;5072707;28;20031;-62
2022/05/22 09:13:45;;;;;;;2.05;1.65;;;35.60;52.90;;;;;;5072457;28;20019;-62
2022/05/22 09:16:23;;;;;;;1.60;1.40;;;36.00;52.10;;;;;;5072735;28;20039;-62
2022/05/22 09:18:51;;;;;;;1.40;1.30;;;36.00;50.60;;;;;;5072701;28;20063;-62
2022/05/22 09:21:23;;;;;;;1.30;1.20;;;35.70;51.20;;;;;;5075814;28;20029;-62
2022/05/22 09:23:59;;;;;;;1.98;1.27;;;35.80;55.10;;;;;;5076108;28;20467;-62
2022/05/22 09:26:30;;;;;;;1.30;1.20;;;35.80;51.40;;;;;;5076082;28;20517;-62
2022/05/22 09:29:37;;;;;;;1.63;1.20;;;35.30;53.60;;;;;;5075800;28;20020;-62
2022/05/22 09:32:14;;;;;;;1.20;1.10;;;34.40;53.10;;;;;;5075868;28;20032;-62
2022/05/22 09:34:58;;;;;;;1.40;1.30;;;34.30;53.60;;;;;;5075796;28;20016;-62
2022/05/22 09:37:50;;;;;;;2.85;1.70;;;34.60;53.80;;;;;;5076018;28;20021;-62
2022/05/22 09:40:37;;;;;;;1.40;1.30;;;35.10;53.00;;;;;;5075811;28;20025;-62
2022/05/22 09:43:26;;;;;;;1.50;1.25;;;34.70;51.50;;;;;;5075612;28;20092;-62
2022/05/22 09:46:13;;;;;;;1.50;1.40;;;35.00;52.30;;;;;;5074185;28;20037;-62
2022/05/22 09:48:59;;;;;;;1.27;1.17;;;34.80;51.50;;;;;;5075707;28;20478;-62
2022/05/22 09:51:43;;;;;;;1.50;1.40;;;34.40;51.20;;;;;;5075514;28;20056;-62
2022/05/22 09:54:20;;;;;;;1.40;1.30;;;34.40;51.40;;;;;;5075844;28;20158;-62
2022/05/22 09:56:58;;;;;;;1.42;1.33;;;34.70;51.20;;;;;;5075168;28;20031;-62
2022/05/22 09:59:38;;;;;;;2.70;1.13;;;35.00;52.70;;;;;;5075202;28;20071;-62
2022/05/22 10:02:14;;;;;;;1.58;1.10;;;35.50;51.50;;;;;;5075324;28;20028;-62
2022/05/22 10:04:58;;;;;;;1.50;1.30;;;35.70;49.10;;;;;;5075406;28;20023;-62
2022/05/22 10:07:45;;;;;;;1.30;1.20;;;36.00;46.50;;;;;;5075391;28;20021;-62
2022/05/22 10:10:32;;;;;;;1.25;1.15;;;36.00;48.00;;;;;;5075041;28;20043;-62
2022/05/22 10:13:11;;;;;;;1.00;1.00;;;36.10;49.00;;;;;;5075186;28;20074;-62
2022/05/22 10:16:06;;;;;;;1.25;1.13;;;36.10;47.60;;;;;;5074937;28;20482;-62
2022/05/22 10:18:43;;;;;;;1.40;1.23;;;35.90;46.10;;;;;;5074549;28;20033;-63
2022/05/22 10:21:26;;;;;;;2.53;1.38;;;35.90;48.30;;;;;;5075051;28;20039;-62
2022/05/22 10:24:02;;;;;;;;;;;36.30;45.50;;;;;;5075235;28;20024;-62
2022/05/22 10:26:28;;;;;;;1.92;1.00;;;35.90;44.00;;;;;;5075022;28;19958;-62
2022/05/22 10:29:03;;;;;;;1.13;1.02;;;35.70;45.00;;;;;;5074866;28;20016;-62
2022/05/22 10:31:40;;;;;;;1.63;1.00;;;35.20;43.50;;;;;;5074247;28;20027;-62
2022/05/22 10:34:35;;;;;;;1.20;1.10;;;35.30;47.20;;;;;;5074751;28;20422;-63
2022/05/22 10:37:14;;;;;;;1.92;1.10;;;35.50;44.80;;;;;;5065317;28;20406;-62
2022/05/22 10:39:40;;;;;;;1.73;1.23;;;35.50;46.10;;;;;;5074425;28;20021;-62
2022/05/22 10:44:56;;;;;;;1.38;1.13;;;35.60;45.20;;;;;;5074579;28;20032;-62
2022/05/22 10:47:35;;;;;;;1.80;1.17;;;35.40;45.90;;;;;;5074497;28;20036;-62
2022/05/22 10:50:18;;;;;;;1.60;1.23;;;35.00;45.30;;;;;;5074429;28;20024;-62
2022/05/22 10:52:45;;;;;;;2.15;1.10;;;35.20;43.90;;;;;;5074416;28;20108;-62
2022/05/22 10:55:21;;;;;;;1.90;1.00;;;35.40;43.20;;;;;;5074084;28;20070;-62
2022/05/22 10:58:03;;;;;;;1.80;1.30;;;35.90;44.80;;;;;;5073967;28;20085;-62
2022/05/22 11:00:30;;;;;;;1.05;0.95;;;36.00;40.90;;;;;;5074323;28;20033;-62
2022/05/22 11:02:56;;;;;;;0.93;0.90;;;35.30;41.70;;;;;;5074371;28;20028;-62
2022/05/22 11:05:30;;;;;;;1.20;1.10;;;35.60;41.90;;;;;;5074072;28;20052;-63
2022/05/22 11:07:57;;;;;;;1.30;1.10;;;35.50;41.50;;;;;;5074178;28;20095;-62
2022/05/22 11:10:35;;;;;;;1.63;0.95;;;35.60;42.30;;;;;;5073793;28;20474;-63
2022/05/22 11:13:19;;;;;;;0.75;0.75;;;35.50;42.60;;;;;;5073939;28;20025;-63
2022/05/22 11:15:45;;;;;;;1.08;0.90;;;35.00;42.20;;;;;;5073847;28;20032;-62
2022/05/22 11:18:20;;;;;;;0.70;0.70;;;35.30;41.50;;;;;;5073992;28;20025;-62
2022/05/22 11:20:51;;;;;;;1.00;1.00;;;35.50;44.80;;;;;;5073809;28;20449;-62
2022/05/22 11:23:37;;;;;;;1.45;1.35;;;35.70;43.70;;;;;;5073567;28;20020;-62
2022/05/22 11:26:36;;;;;;;1.10;1.00;;;35.00;41.60;;;;;;5073638;28;20111;-63
2022/05/22 11:29:47;;;;;;;1.90;1.00;;;34.80;42.60;;;;;;5067828;28;20090;-62
2022/05/22 11:32:28;;;;;;;1.40;1.10;;;35.50;42.80;;;;;;5073190;28;20039;-62
2022/05/22 11:35:24;;;;;;;1.00;0.90;;;35.90;42.30;;;;;;5073608;28;20021;-63
2022/05/22 11:38:03;;;;;;;1.25;1.00;;;36.00;41.10;;;;;;5073324;28;20035;-63
2022/05/22 11:40:40;;;;;;;1.38;0.93;;;35.90;42.00;;;;;;5073555;28;20040;-62
2022/05/22 11:43:26;;;;;;;1.00;1.00;;;35.50;40.70;;;;;;5072682;28;20020;-63
2022/05/22 11:46:04;;;;;;;1.20;1.10;;;35.30;42.20;;;;;;5073461;28;20386;-63
2022/05/22 11:48:48;;;;;;;1.25;1.10;;;35.30;43.80;;;;;;5073474;28;20020;-63
2022/05/22 11:51:26;;;;;;;2.40;1.27;;;35.30;43.00;;;;;;5073323;28;20020;-63
2022/05/22 11:53:57;;;;;;;1.98;1.27;;;35.60;43.50;;;;;;5073461;28;20024;-63
2022/05/22 11:56:41;;;;;;;1.90;1.80;;;35.10;40.70;;;;;;5073271;28;20123;-63
2022/05/22 11:59:21;;;;;;;1.90;1.20;;;34.60;41.50;;;;;;5072215;28;20075;-62
2022/05/22 12:02:12;;;;;;;1.45;1.20;;;34.00;40.20;;;;;;5072378;28;20028;-63
2022/05/22 12:05:31;;;;;;;2.13;1.58;;;34.00;41.00;;;;;;5071261;28;20063;-63
2022/05/22 12:08:34;;;;;;;1.10;1.00;;;34.60;41.50;;;;;;4970581;28;20037;-62
2022/05/22 12:11:41;;;;;;;1.15;1.05;;;33.90;41.90;;;;;;5072260;28;20047;-63
2022/05/22 12:14:17;;;;;;;1.10;1.10;;;33.80;44.90;;;;;;5071826;28;20039;-62
2022/05/22 12:17:04;;;;;;;1.48;1.00;;;34.30;44.80;;;;;;5072461;28;20392;-63
2022/05/22 12:19:56;;;;;;;1.67;1.58;;;34.80;44.50;;;;;;5073102;28;20110;-63
2022/05/22 12:23:07;;;;;;;1.30;1.20;;;34.50;41.60;;;;;;5072331;28;20048;-62
2022/05/22 12:25:20;;;;;;;1.20;1.10;;;34.70;43.40;;;;;;5070903;28;20021;-63
2022/05/22 12:27:46;;;;;;;0.98;0.90;;;34.50;42.90;;;;;;5072869;28;20111;-63
2022/05/22 12:30:24;;;;;;;1.50;1.05;;;34.70;42.60;;;;;;5072949;28;20024;-63
2022/05/22 12:33:04;;;;;;;2.60;1.70;;;34.90;41.70;;;;;;5073024;28;20101;-63
2022/05/22 12:35:30;;;;;;;1.60;1.50;;;34.70;40.60;;;;;;5072821;28;20025;-62
2022/05/22 12:38:02;;;;;;;1.40;1.30;;;34.10;42.80;;;;;;5073160;28;20024;-63
2022/05/22 12:40:52;;;;;;;2.33;1.50;;;33.40;43.20;;;;;;5072868;28;20493;-63
2022/05/22 12:43:21;;;;;;;1.60;1.50;;;32.80;44.00;;;;;;5073136;28;20028;-62
2022/05/22 12:45:53;;;;;;;1.17;1.08;;;32.70;44.50;;;;;;5072840;28;20029;-62
2022/05/22 12:48:35;;;;;;;1.30;1.20;;;32.70;44.70;;;;;;5073052;28;20195;-62
2022/05/22 12:51:21;;;;;;;1.30;1.20;;;32.70;44.40;;;;;;5072727;28;20039;-62
2022/05/22 12:53:52;;;;;;;2.50;1.10;;;32.60;44.50;;;;;;5073904;28;20020;-62
2022/05/22 12:56:29;;;;;;;1.50;1.38;;;32.50;44.90;;;;;;5076680;28;20036;-62
2022/05/22 12:58:58;;;;;;;1.98;1.67;;;32.80;47.30;;;;;;5076344;28;20059;-62
2022/05/22 13:01:37;;;;;;;3.20;1.85;;;33.00;44.40;;;;;;5076539;28;20099;-62
2022/05/22 13:04:23;;;;;;;1.80;1.33;;;32.70;43.90;;;;;;5076275;28;20017;-62
2022/05/22 13:06:58;;;;;;;1.40;1.30;;;32.70;43.60;;;;;;5025745;28;20479;-63
2022/05/22 13:09:33;;;;;;;1.58;1.30;;;32.70;43.80;;;;;;5076276;28;20028;-62
2022/05/22 13:12:04;;;;;;;1.30;1.20;;;32.80;44.30;;;;;;5076395;28;20020;-62
2022/05/22 13:14:40;;;;;;;1.40;1.30;;;33.00;44.50;;;;;;5076208;28;20356;-62
2022/05/22 13:17:08;;;;;;;1.90;1.80;;;33.20;45.20;;;;;;5076247;28;20484;-63
2022/05/22 13:19:34;;;;;;;1.77;1.50;;;33.50;45.80;;;;;;5075961;28;20031;-62
2022/05/22 13:22:12;;;;;;;1.67;1.58;;;33.70;46.60;;;;;;5076064;28;20056;-63
2022/05/22 13:24:48;;;;;;;4.03;1.75;;;33.70;45.50;;;;;;5076031;28;20368;-62
2022/05/22 13:27:41;;;;;;;1.65;1.50;;;33.90;46.50;;;;;;5075983;28;20046;-62